sensor_id;sensor_type;location;lat;lon;timestamp;P1;durP1;ratioP1;P2;durP2;ratioP2
17714;SDS011;8977;50.902;4.314;2022-10-16T00:01:15;1.00;;;0.70;;
17714;SDS011;8977;50.902;4.314;2022-10-16T00:03:43;0.70;;;0.60;;
17714;SDS011;8977;50.902;4.314;2022-10-16T00:06:11;1.83;;;0.80;;
17714;SDS011;8977;50.902;4.314;2022-10-16T00:08:39;1.17;;;0.80;;
17714;SDS011;8977;50.902;4.314;2022-10-16T00:11:09;3.10;;;0.90;;
17714;SDS011;8977;50.902;4.314;2022-10-16T00:13:39;2.43;;;0.97;;
17714;SDS011;8977;50.902;4.314;2022-10-16T00:16:07;1.67;;;1.07;;
17714;SDS011;8977;50.902;4.314;2022-10-16T00:18:35;2.23;;;1.07;;
17714;SDS011;8977;50.902;4.314;2022-10-16T00:21:04;1.33;;;1.07;;
17714;SDS011;8977;50.902;4.314;2022-10-16T00:23:32;4.07;;;1.03;;
17714;SDS011;8977;50.902;4.314;2022-10-16T00:26:00;3.63;;;1.00;;
17714;SDS011;8977;50.902;4.314;2022-10-16T00:28:30;1.03;;;0.90;;
17714;SDS011;8977;50.902;4.314;2022-10-16T00:30:57;2.03;;;1.00;;
17714;SDS011;8977;50.902;4.314;2022-10-16T00:33:24;3.27;;;1.87;;
17714;SDS011;8977;50.902;4.314;2022-10-16T00:35:51;1.00;;;0.90;;
17714;SDS011;8977;50.902;4.314;2022-10-16T00:38:18;3.63;;;1.07;;
17714;SDS011;8977;50.902;4.314;2022-10-16T00:40:45;2.83;;;1.10;;
17714;SDS011;8977;50.902;4.314;2022-10-16T00:43:12;2.13;;;1.10;;
17714;SDS011;8977;50.902;4.314;2022-10-16T00:45:42;1.27;;;1.00;;
17714;SDS011;8977;50.902;4.314;2022-10-16T00:48:10;1.50;;;1.00;;
17714;SDS011;8977;50.902;4.314;2022-10-16T00:50:40;2.77;;;1.13;;
17714;SDS011;8977;50.902;4.314;2022-10-16T00:53:08;2.80;;;1.17;;
17714;SDS011;8977;50.902;4.314;2022-10-16T00:55:38;1.23;;;1.10;;
17714;SDS011;8977;50.902;4.314;2022-10-16T00:58:05;1.47;;;1.07;;
17714;SDS011;8977;50.902;4.314;2022-10-16T01:00:32;1.30;;;1.00;;
17714;SDS011;8977;50.902;4.314;2022-10-16T01:03:00;1.40;;;1.10;;
17714;SDS011;8977;50.902;4.314;2022-10-16T01:05:30;1.10;;;1.00;;
17714;SDS011;8977;50.902;4.314;2022-10-16T01:08:02;1.93;;;1.10;;
17714;SDS011;8977;50.902;4.314;2022-10-16T01:10:36;2.03;;;1.17;;
17714;SDS011;8977;50.902;4.314;2022-10-16T01:13:07;2.10;;;0.97;;
17714;SDS011;8977;50.902;4.314;2022-10-16T01:15:36;1.97;;;1.00;;
17714;SDS011;8977;50.902;4.314;2022-10-16T01:18:09;3.67;;;1.20;;
17714;SDS011;8977;50.902;4.314;2022-10-16T01:20:42;2.37;;;1.30;;
17714;SDS011;8977;50.902;4.314;2022-10-16T01:23:20;1.87;;;1.20;;
17714;SDS011;8977;50.902;4.314;2022-10-16T01:28:44;1.23;;;1.10;;
17714;SDS011;8977;50.902;4.314;2022-10-16T01:31:17;1.40;;;1.10;;
17714;SDS011;8977;50.902;4.314;2022-10-16T01:33:50;1.20;;;1.07;;
17714;SDS011;8977;50.902;4.314;2022-10-16T01:36:21;1.20;;;1.07;;
17714;SDS011;8977;50.902;4.314;2022-10-16T01:38:52;1.87;;;1.30;;
17714;SDS011;8977;50.902;4.314;2022-10-16T01:41:24;4.07;;;1.50;;
17714;SDS011;8977;50.902;4.314;2022-10-16T01:43:57;1.70;;;1.20;;
17714;SDS011;8977;50.902;4.314;2022-10-16T01:46:28;3.20;;;1.30;;
17714;SDS011;8977;50.902;4.314;2022-10-16T01:48:58;1.67;;;1.30;;
17714;SDS011;8977;50.902;4.314;2022-10-16T01:51:26;1.50;;;1.23;;
17714;SDS011;8977;50.902;4.314;2022-10-16T01:53:56;2.17;;;1.30;;
17714;SDS011;8977;50.902;4.314;2022-10-16T01:56:25;2.37;;;1.20;;
17714;SDS011;8977;50.902;4.314;2022-10-16T01:58:54;1.53;;;1.43;;
17714;SDS011;8977;50.902;4.314;2022-10-16T02:01:25;3.17;;;1.50;;
17714;SDS011;8977;50.902;4.314;2022-10-16T02:03:54;2.40;;;1.20;;
17714;SDS011;8977;50.902;4.314;2022-10-16T02:06:24;1.43;;;1.33;;
17714;SDS011;8977;50.902;4.314;2022-10-16T02:08:52;1.73;;;1.20;;
17714;SDS011;8977;50.902;4.314;2022-10-16T02:11:19;1.97;;;1.30;;
17714;SDS011;8977;50.902;4.314;2022-10-16T02:13:48;3.13;;;1.80;;
17714;SDS011;8977;50.902;4.314;2022-10-16T02:16:20;2.30;;;1.60;;
17714;SDS011;8977;50.902;4.314;2022-10-16T02:18:58;2.43;;;1.50;;
17714;SDS011;8977;50.902;4.314;2022-10-16T02:21:25;1.77;;;1.30;;
17714;SDS011;8977;50.902;4.314;2022-10-16T02:23:55;1.47;;;1.30;;
17714;SDS011;8977;50.902;4.314;2022-10-16T02:26:28;1.80;;;1.40;;
17714;SDS011;8977;50.902;4.314;2022-10-16T02:28:59;1.67;;;1.20;;
17714;SDS011;8977;50.902;4.314;2022-10-16T02:31:32;2.63;;;1.47;;
17714;SDS011;8977;50.902;4.314;2022-10-16T02:34:02;1.50;;;1.37;;
17714;SDS011;8977;50.902;4.314;2022-10-16T02:36:31;2.30;;;1.40;;
17714;SDS011;8977;50.902;4.314;2022-10-16T02:39:00;2.13;;;1.33;;
17714;SDS011;8977;50.902;4.314;2022-10-16T02:41:28;2.03;;;1.40;;
17714;SDS011;8977;50.902;4.314;2022-10-16T02:43:56;1.50;;;1.13;;
17714;SDS011;8977;50.902;4.314;2022-10-16T02:46:23;2.43;;;1.30;;
17714;SDS011;8977;50.902;4.314;2022-10-16T02:48:51;2.03;;;1.30;;
17714;SDS011;8977;50.902;4.314;2022-10-16T02:51:18;1.93;;;1.50;;
17714;SDS011;8977;50.902;4.314;2022-10-16T02:53:45;2.80;;;1.70;;
17714;SDS011;8977;50.902;4.314;2022-10-16T02:56:12;1.50;;;1.30;;
17714;SDS011;8977;50.902;4.314;2022-10-16T02:58:39;1.57;;;1.40;;
17714;SDS011;8977;50.902;4.314;2022-10-16T03:01:05;1.87;;;1.60;;
17714;SDS011;8977;50.902;4.314;2022-10-16T03:03:32;2.90;;;1.60;;
17714;SDS011;8977;50.902;4.314;2022-10-16T03:06:01;3.57;;;1.60;;
17714;SDS011;8977;50.902;4.314;2022-10-16T03:08:28;1.77;;;1.40;;
17714;SDS011;8977;50.902;4.314;2022-10-16T03:10:54;1.53;;;1.43;;
17714;SDS011;8977;50.902;4.314;2022-10-16T03:13:22;1.57;;;1.47;;
17714;SDS011;8977;50.902;4.314;2022-10-16T03:15:49;3.07;;;1.50;;
17714;SDS011;8977;50.902;4.314;2022-10-16T03:18:16;3.07;;;1.70;;
17714;SDS011;8977;50.902;4.314;2022-10-16T03:20:43;1.87;;;1.60;;
17714;SDS011;8977;50.902;4.314;2022-10-16T03:23:11;2.10;;;1.37;;
17714;SDS011;8977;50.902;4.314;2022-10-16T03:25:38;2.87;;;1.60;;
17714;SDS011;8977;50.902;4.314;2022-10-16T03:28:06;3.90;;;1.60;;
17714;SDS011;8977;50.902;4.314;2022-10-16T03:30:33;2.57;;;1.50;;
17714;SDS011;8977;50.902;4.314;2022-10-16T03:33:00;2.50;;;1.70;;
17714;SDS011;8977;50.902;4.314;2022-10-16T03:35:27;3.30;;;1.87;;
17714;SDS011;8977;50.902;4.314;2022-10-16T03:37:54;3.33;;;1.50;;
17714;SDS011;8977;50.902;4.314;2022-10-16T03:40:23;3.30;;;1.47;;
17714;SDS011;8977;50.902;4.314;2022-10-16T03:42:51;3.53;;;1.97;;
17714;SDS011;8977;50.902;4.314;2022-10-16T03:45:20;2.50;;;1.60;;
17714;SDS011;8977;50.902;4.314;2022-10-16T03:47:47;3.73;;;1.60;;
17714;SDS011;8977;50.902;4.314;2022-10-16T03:50:14;3.47;;;1.70;;
17714;SDS011;8977;50.902;4.314;2022-10-16T03:52:41;2.40;;;1.80;;
17714;SDS011;8977;50.902;4.314;2022-10-16T03:55:08;3.40;;;2.03;;
17714;SDS011;8977;50.902;4.314;2022-10-16T03:57:36;3.30;;;1.60;;
17714;SDS011;8977;50.902;4.314;2022-10-16T04:00:03;2.10;;;1.50;;
17714;SDS011;8977;50.902;4.314;2022-10-16T04:02:31;1.67;;;1.33;;
17714;SDS011;8977;50.902;4.314;2022-10-16T04:04:57;1.73;;;1.60;;
17714;SDS011;8977;50.902;4.314;2022-10-16T04:07:24;3.13;;;1.67;;
17714;SDS011;8977;50.902;4.314;2022-10-16T04:09:51;2.60;;;1.60;;
17714;SDS011;8977;50.902;4.314;2022-10-16T04:12:18;8.73;;;1.90;;
17714;SDS011;8977;50.902;4.314;2022-10-16T04:14:46;2.30;;;1.77;;
17714;SDS011;8977;50.902;4.314;2022-10-16T04:17:13;2.97;;;1.87;;
17714;SDS011;8977;50.902;4.314;2022-10-16T04:19:40;4.17;;;1.80;;
17714;SDS011;8977;50.902;4.314;2022-10-16T04:22:07;2.80;;;1.53;;
17714;SDS011;8977;50.902;4.314;2022-10-16T04:24:34;2.93;;;1.50;;
17714;SDS011;8977;50.902;4.314;2022-10-16T04:27:01;3.03;;;1.67;;
17714;SDS011;8977;50.902;4.314;2022-10-16T04:29:28;1.80;;;1.60;;
17714;SDS011;8977;50.902;4.314;2022-10-16T04:31:56;2.47;;;1.60;;
17714;SDS011;8977;50.902;4.314;2022-10-16T04:34:23;2.53;;;1.40;;
17714;SDS011;8977;50.902;4.314;2022-10-16T04:36:50;4.03;;;1.80;;
17714;SDS011;8977;50.902;4.314;2022-10-16T04:39:18;4.10;;;2.30;;
17714;SDS011;8977;50.902;4.314;2022-10-16T04:41:44;4.47;;;1.40;;
17714;SDS011;8977;50.902;4.314;2022-10-16T04:44:11;2.33;;;1.50;;
17714;SDS011;8977;50.902;4.314;2022-10-16T04:46:38;2.37;;;1.50;;
17714;SDS011;8977;50.902;4.314;2022-10-16T04:49:06;5.03;;;1.83;;
17714;SDS011;8977;50.902;4.314;2022-10-16T04:51:33;3.43;;;1.90;;
17714;SDS011;8977;50.902;4.314;2022-10-16T04:54:01;3.67;;;1.73;;
17714;SDS011;8977;50.902;4.314;2022-10-16T04:56:28;4.37;;;1.73;;
17714;SDS011;8977;50.902;4.314;2022-10-16T04:58:55;4.40;;;1.90;;
17714;SDS011;8977;50.902;4.314;2022-10-16T05:01:22;3.37;;;1.60;;
17714;SDS011;8977;50.902;4.314;2022-10-16T05:03:49;3.10;;;1.83;;
17714;SDS011;8977;50.902;4.314;2022-10-16T05:06:17;2.83;;;1.73;;
17714;SDS011;8977;50.902;4.314;2022-10-16T05:08:44;1.50;;;1.40;;
17714;SDS011;8977;50.902;4.314;2022-10-16T05:11:11;3.43;;;1.80;;
17714;SDS011;8977;50.902;4.314;2022-10-16T05:13:37;2.97;;;1.60;;
17714;SDS011;8977;50.902;4.314;2022-10-16T05:16:05;4.27;;;1.90;;
17714;SDS011;8977;50.902;4.314;2022-10-16T05:18:32;3.57;;;2.03;;
17714;SDS011;8977;50.902;4.314;2022-10-16T05:20:59;2.40;;;1.80;;
17714;SDS011;8977;50.902;4.314;2022-10-16T05:23:27;4.17;;;1.70;;
17714;SDS011;8977;50.902;4.314;2022-10-16T05:25:54;3.17;;;1.60;;
17714;SDS011;8977;50.902;4.314;2022-10-16T05:28:23;4.47;;;1.47;;
17714;SDS011;8977;50.902;4.314;2022-10-16T05:30:50;3.53;;;1.80;;
17714;SDS011;8977;50.902;4.314;2022-10-16T05:33:19;3.63;;;1.63;;
17714;SDS011;8977;50.902;4.314;2022-10-16T05:35:46;4.60;;;2.00;;
17714;SDS011;8977;50.902;4.314;2022-10-16T05:38:14;3.10;;;1.90;;
17714;SDS011;8977;50.902;4.314;2022-10-16T05:40:43;1.80;;;1.70;;
17714;SDS011;8977;50.902;4.314;2022-10-16T05:43:17;3.63;;;1.90;;
17714;SDS011;8977;50.902;4.314;2022-10-16T05:45:44;3.73;;;1.87;;
17714;SDS011;8977;50.902;4.314;2022-10-16T05:48:19;3.67;;;1.80;;
17714;SDS011;8977;50.902;4.314;2022-10-16T05:50:46;5.43;;;2.23;;
17714;SDS011;8977;50.902;4.314;2022-10-16T05:53:13;3.63;;;1.90;;
17714;SDS011;8977;50.902;4.314;2022-10-16T05:55:40;3.23;;;2.00;;
17714;SDS011;8977;50.902;4.314;2022-10-16T05:58:08;2.60;;;1.90;;
17714;SDS011;8977;50.902;4.314;2022-10-16T06:00:35;3.70;;;2.23;;
17714;SDS011;8977;50.902;4.314;2022-10-16T06:03:02;3.00;;;1.87;;
17714;SDS011;8977;50.902;4.314;2022-10-16T06:05:31;3.80;;;1.80;;
17714;SDS011;8977;50.902;4.314;2022-10-16T06:07:58;2.80;;;1.73;;
17714;SDS011;8977;50.902;4.314;2022-10-16T06:10:25;2.90;;;2.10;;
17714;SDS011;8977;50.902;4.314;2022-10-16T06:12:55;5.63;;;2.07;;
17714;SDS011;8977;50.902;4.314;2022-10-16T06:15:22;2.50;;;2.10;;
17714;SDS011;8977;50.902;4.314;2022-10-16T06:17:49;4.67;;;2.50;;
17714;SDS011;8977;50.902;4.314;2022-10-16T06:20:15;3.13;;;1.90;;
17714;SDS011;8977;50.902;4.314;2022-10-16T06:22:42;3.57;;;1.97;;
17714;SDS011;8977;50.902;4.314;2022-10-16T06:25:09;3.63;;;2.00;;
17714;SDS011;8977;50.902;4.314;2022-10-16T06:27:36;3.13;;;1.90;;
17714;SDS011;8977;50.902;4.314;2022-10-16T06:30:07;2.73;;;1.73;;
17714;SDS011;8977;50.902;4.314;2022-10-16T06:32:35;3.47;;;1.73;;
17714;SDS011;8977;50.902;4.314;2022-10-16T06:35:02;3.03;;;1.63;;
17714;SDS011;8977;50.902;4.314;2022-10-16T06:37:29;3.10;;;1.60;;
17714;SDS011;8977;50.902;4.314;2022-10-16T06:39:56;3.27;;;1.90;;
17714;SDS011;8977;50.902;4.314;2022-10-16T06:42:22;3.17;;;1.87;;
17714;SDS011;8977;50.902;4.314;2022-10-16T06:44:49;3.87;;;1.63;;
17714;SDS011;8977;50.902;4.314;2022-10-16T06:47:17;3.67;;;2.27;;
17714;SDS011;8977;50.902;4.314;2022-10-16T06:49:44;3.80;;;2.00;;
17714;SDS011;8977;50.902;4.314;2022-10-16T06:52:11;3.40;;;2.00;;
17714;SDS011;8977;50.902;4.314;2022-10-16T06:54:38;5.03;;;2.50;;
17714;SDS011;8977;50.902;4.314;2022-10-16T06:57:04;3.80;;;2.30;;
17714;SDS011;8977;50.902;4.314;2022-10-16T06:59:31;2.80;;;2.10;;
17714;SDS011;8977;50.902;4.314;2022-10-16T07:01:58;5.30;;;2.37;;
17714;SDS011;8977;50.902;4.314;2022-10-16T07:04:26;5.00;;;2.17;;
17714;SDS011;8977;50.902;4.314;2022-10-16T07:06:53;3.57;;;1.97;;
17714;SDS011;8977;50.902;4.314;2022-10-16T07:09:20;5.00;;;2.47;;
17714;SDS011;8977;50.902;4.314;2022-10-16T07:11:47;4.03;;;2.13;;
17714;SDS011;8977;50.902;4.314;2022-10-16T07:14:14;3.00;;;2.10;;
17714;SDS011;8977;50.902;4.314;2022-10-16T07:16:43;3.60;;;2.00;;
17714;SDS011;8977;50.902;4.314;2022-10-16T07:19:09;4.20;;;1.90;;
17714;SDS011;8977;50.902;4.314;2022-10-16T07:21:39;2.60;;;2.20;;
17714;SDS011;8977;50.902;4.314;2022-10-16T07:24:10;2.37;;;1.80;;
17714;SDS011;8977;50.902;4.314;2022-10-16T07:26:38;3.30;;;1.80;;
17714;SDS011;8977;50.902;4.314;2022-10-16T07:29:05;3.20;;;2.20;;
17714;SDS011;8977;50.902;4.314;2022-10-16T07:31:33;5.03;;;2.50;;
17714;SDS011;8977;50.902;4.314;2022-10-16T07:34:00;2.90;;;1.90;;
17714;SDS011;8977;50.902;4.314;2022-10-16T07:36:27;3.53;;;2.20;;
17714;SDS011;8977;50.902;4.314;2022-10-16T07:38:55;2.20;;;1.80;;
17714;SDS011;8977;50.902;4.314;2022-10-16T07:41:22;4.30;;;1.97;;
17714;SDS011;8977;50.902;4.314;2022-10-16T07:43:49;3.27;;;2.17;;
17714;SDS011;8977;50.902;4.314;2022-10-16T07:46:17;3.63;;;1.93;;
17714;SDS011;8977;50.902;4.314;2022-10-16T07:48:45;5.27;;;2.10;;
17714;SDS011;8977;50.902;4.314;2022-10-16T07:51:13;5.17;;;2.20;;
17714;SDS011;8977;50.902;4.314;2022-10-16T07:53:41;3.43;;;2.00;;
17714;SDS011;8977;50.902;4.314;2022-10-16T07:56:09;2.10;;;1.77;;
17714;SDS011;8977;50.902;4.314;2022-10-16T07:58:36;4.47;;;2.20;;
17714;SDS011;8977;50.902;4.314;2022-10-16T08:01:03;3.60;;;2.00;;
17714;SDS011;8977;50.902;4.314;2022-10-16T08:03:31;7.50;;;2.00;;
17714;SDS011;8977;50.902;4.314;2022-10-16T08:05:58;3.40;;;1.60;;
17714;SDS011;8977;50.902;4.314;2022-10-16T08:08:26;4.87;;;1.80;;
17714;SDS011;8977;50.902;4.314;2022-10-16T08:10:54;3.37;;;1.80;;
17714;SDS011;8977;50.902;4.314;2022-10-16T08:13:22;2.43;;;1.80;;
17714;SDS011;8977;50.902;4.314;2022-10-16T08:15:49;4.63;;;1.77;;
17714;SDS011;8977;50.902;4.314;2022-10-16T08:18:16;4.30;;;2.27;;
17714;SDS011;8977;50.902;4.314;2022-10-16T08:20:43;3.10;;;1.77;;
17714;SDS011;8977;50.902;4.314;2022-10-16T08:23:10;2.87;;;1.70;;
17714;SDS011;8977;50.902;4.314;2022-10-16T08:25:38;2.83;;;2.03;;
17714;SDS011;8977;50.902;4.314;2022-10-16T08:28:05;4.63;;;1.87;;
17714;SDS011;8977;50.902;4.314;2022-10-16T08:30:35;3.00;;;2.40;;
17714;SDS011;8977;50.902;4.314;2022-10-16T08:33:02;6.43;;;2.20;;
17714;SDS011;8977;50.902;4.314;2022-10-16T08:35:29;4.70;;;1.73;;
17714;SDS011;8977;50.902;4.314;2022-10-16T08:37:56;5.50;;;2.10;;
17714;SDS011;8977;50.902;4.314;2022-10-16T08:40:23;3.70;;;2.13;;
17714;SDS011;8977;50.902;4.314;2022-10-16T08:45:56;3.57;;;1.50;;
17714;SDS011;8977;50.902;4.314;2022-10-16T08:48:34;3.03;;;1.60;;
17714;SDS011;8977;50.902;4.314;2022-10-16T08:51:07;2.40;;;1.67;;
17714;SDS011;8977;50.902;4.314;2022-10-16T08:53:38;3.00;;;1.57;;
17714;SDS011;8977;50.902;4.314;2022-10-16T08:56:10;5.30;;;1.50;;
17714;SDS011;8977;50.902;4.314;2022-10-16T08:58:37;2.77;;;1.50;;
17714;SDS011;8977;50.902;4.314;2022-10-16T09:01:10;3.00;;;1.43;;
17714;SDS011;8977;50.902;4.314;2022-10-16T09:03:43;2.50;;;1.63;;
17714;SDS011;8977;50.902;4.314;2022-10-16T09:06:42;2.87;;;1.80;;
17714;SDS011;8977;50.902;4.314;2022-10-16T09:09:27;2.57;;;1.50;;
17714;SDS011;8977;50.902;4.314;2022-10-16T09:12:10;3.77;;;1.57;;
17714;SDS011;8977;50.902;4.314;2022-10-16T09:14:50;5.27;;;1.53;;
17714;SDS011;8977;50.902;4.314;2022-10-16T09:17:29;4.17;;;1.40;;
17714;SDS011;8977;50.902;4.314;2022-10-16T09:20:14;5.87;;;1.50;;
17714;SDS011;8977;50.902;4.314;2022-10-16T09:22:46;2.03;;;1.17;;
17714;SDS011;8977;50.902;4.314;2022-10-16T09:25:13;4.50;;;1.50;;
17714;SDS011;8977;50.902;4.314;2022-10-16T09:27:43;3.40;;;1.00;;
17714;SDS011;8977;50.902;4.314;2022-10-16T09:30:13;2.20;;;1.20;;
17714;SDS011;8977;50.902;4.314;2022-10-16T09:32:43;2.57;;;1.40;;
17714;SDS011;8977;50.902;4.314;2022-10-16T09:35:13;3.10;;;1.30;;
17714;SDS011;8977;50.902;4.314;2022-10-16T09:37:41;3.50;;;1.40;;
17714;SDS011;8977;50.902;4.314;2022-10-16T09:40:23;3.67;;;1.23;;
17714;SDS011;8977;50.902;4.314;2022-10-16T09:42:52;2.00;;;1.03;;
17714;SDS011;8977;50.902;4.314;2022-10-16T09:45:27;5.40;;;1.50;;
17714;SDS011;8977;50.902;4.314;2022-10-16T09:47:55;3.83;;;1.13;;
17714;SDS011;8977;50.902;4.314;2022-10-16T09:50:23;4.17;;;1.40;;
17714;SDS011;8977;50.902;4.314;2022-10-16T09:53:01;3.50;;;1.17;;
17714;SDS011;8977;50.902;4.314;2022-10-16T09:55:30;4.65;;;1.20;;
17714;SDS011;8977;50.902;4.314;2022-10-16T09:57:56;3.80;;;1.55;;
17714;SDS011;8977;50.902;4.314;2022-10-16T10:00:24;3.15;;;1.67;;
17714;SDS011;8977;50.902;4.314;2022-10-16T10:02:51;4.72;;;1.52;;
17714;SDS011;8977;50.902;4.314;2022-10-16T10:05:21;4.20;;;1.58;;
17714;SDS011;8977;50.902;4.314;2022-10-16T10:07:53;3.42;;;1.30;;
17714;SDS011;8977;50.902;4.314;2022-10-16T10:10:22;3.40;;;1.10;;
17714;SDS011;8977;50.902;4.314;2022-10-16T10:12:51;7.47;;;2.03;;
17714;SDS011;8977;50.902;4.314;2022-10-16T10:15:18;3.40;;;1.42;;
17714;SDS011;8977;50.902;4.314;2022-10-16T10:17:47;2.45;;;1.23;;
17714;SDS011;8977;50.902;4.314;2022-10-16T10:20:21;2.38;;;1.38;;
17714;SDS011;8977;50.902;4.314;2022-10-16T10:22:51;3.22;;;1.33;;
17714;SDS011;8977;50.902;4.314;2022-10-16T10:25:31;4.15;;;1.27;;
17714;SDS011;8977;50.902;4.314;2022-10-16T10:28:18;8.90;;;2.17;;
17714;SDS011;8977;50.902;4.314;2022-10-16T10:30:56;4.57;;;1.50;;
17714;SDS011;8977;50.902;4.314;2022-10-16T10:33:29;3.03;;;1.40;;
17714;SDS011;8977;50.902;4.314;2022-10-16T10:36:07;3.28;;;1.00;;
17714;SDS011;8977;50.902;4.314;2022-10-16T10:38:42;8.07;;;2.22;;
17714;SDS011;8977;50.902;4.314;2022-10-16T10:41:27;4.95;;;1.55;;
17714;SDS011;8977;50.902;4.314;2022-10-16T10:44:11;4.65;;;1.30;;
17714;SDS011;8977;50.902;4.314;2022-10-16T10:46:48;3.05;;;1.27;;
17714;SDS011;8977;50.902;4.314;2022-10-16T10:49:31;3.40;;;1.40;;
17714;SDS011;8977;50.902;4.314;2022-10-16T10:55:03;3.40;;;1.23;;
17714;SDS011;8977;50.902;4.314;2022-10-16T10:57:37;2.35;;;1.30;;
17714;SDS011;8977;50.902;4.314;2022-10-16T11:00:12;3.33;;;1.10;;
17714;SDS011;8977;50.902;4.314;2022-10-16T11:02:47;5.97;;;4.35;;
17714;SDS011;8977;50.902;4.314;2022-10-16T11:05:31;8.02;;;3.22;;
17714;SDS011;8977;50.902;4.314;2022-10-16T11:08:08;4.45;;;1.23;;
17714;SDS011;8977;50.902;4.314;2022-10-16T11:10:42;2.95;;;1.20;;
17714;SDS011;8977;50.902;4.314;2022-10-16T11:13:19;3.20;;;1.50;;
17714;SDS011;8977;50.902;4.314;2022-10-16T11:15:57;4.03;;;1.40;;
17714;SDS011;8977;50.902;4.314;2022-10-16T11:18:30;4.15;;;1.77;;
17714;SDS011;8977;50.902;4.314;2022-10-16T11:21:05;3.78;;;1.27;;
17714;SDS011;8977;50.902;4.314;2022-10-16T11:23:37;3.58;;;1.00;;
17714;SDS011;8977;50.902;4.314;2022-10-16T11:26:10;4.40;;;1.10;;
17714;SDS011;8977;50.902;4.314;2022-10-16T11:28:42;4.93;;;1.60;;
17714;SDS011;8977;50.902;4.314;2022-10-16T11:31:13;2.33;;;1.13;;
17714;SDS011;8977;50.902;4.314;2022-10-16T11:33:47;3.03;;;0.80;;
17714;SDS011;8977;50.902;4.314;2022-10-16T11:36:21;4.15;;;1.60;;
17714;SDS011;8977;50.902;4.314;2022-10-16T11:38:55;3.38;;;1.05;;
17714;SDS011;8977;50.902;4.314;2022-10-16T11:41:29;3.42;;;1.33;;
17714;SDS011;8977;50.902;4.314;2022-10-16T11:44:06;4.20;;;1.58;;
17714;SDS011;8977;50.902;4.314;2022-10-16T11:46:42;5.07;;;1.10;;
17714;SDS011;8977;50.902;4.314;2022-10-16T11:49:17;5.03;;;1.50;;
17714;SDS011;8977;50.902;4.314;2022-10-16T11:51:48;5.47;;;1.40;;
17714;SDS011;8977;50.902;4.314;2022-10-16T11:54:28;4.22;;;1.25;;
17714;SDS011;8977;50.902;4.314;2022-10-16T11:57:01;2.38;;;0.90;;
17714;SDS011;8977;50.902;4.314;2022-10-16T11:59:36;3.33;;;0.90;;
17714;SDS011;8977;50.902;4.314;2022-10-16T12:02:17;2.90;;;1.02;;
17714;SDS011;8977;50.902;4.314;2022-10-16T12:05:11;4.05;;;1.90;;
17714;SDS011;8977;50.902;4.314;2022-10-16T12:07:47;2.20;;;1.10;;
17714;SDS011;8977;50.902;4.314;2022-10-16T12:10:24;3.37;;;1.13;;
17714;SDS011;8977;50.902;4.314;2022-10-16T12:12:53;3.35;;;1.27;;
17714;SDS011;8977;50.902;4.314;2022-10-16T12:15:23;3.47;;;1.10;;
17714;SDS011;8977;50.902;4.314;2022-10-16T12:17:51;2.13;;;1.05;;
17714;SDS011;8977;50.902;4.314;2022-10-16T12:20:20;3.83;;;1.00;;
17714;SDS011;8977;50.902;4.314;2022-10-16T12:22:55;2.95;;;1.48;;
17714;SDS011;8977;50.902;4.314;2022-10-16T12:25:26;1.65;;;1.10;;
17714;SDS011;8977;50.902;4.314;2022-10-16T12:27:58;1.63;;;1.15;;
17714;SDS011;8977;50.902;4.314;2022-10-16T12:30:31;1.90;;;1.23;;
17714;SDS011;8977;50.902;4.314;2022-10-16T12:33:02;2.58;;;0.98;;
17714;SDS011;8977;50.902;4.314;2022-10-16T12:35:32;3.75;;;1.00;;
17714;SDS011;8977;50.902;4.314;2022-10-16T12:38:04;3.17;;;1.05;;
17714;SDS011;8977;50.902;4.314;2022-10-16T12:40:42;4.03;;;1.02;;
17714;SDS011;8977;50.902;4.314;2022-10-16T12:43:12;3.33;;;1.13;;
17714;SDS011;8977;50.902;4.314;2022-10-16T12:45:58;1.42;;;1.17;;
17714;SDS011;8977;50.902;4.314;2022-10-16T12:48:26;2.20;;;1.00;;
17714;SDS011;8977;50.902;4.314;2022-10-16T12:50:53;4.70;;;1.30;;
17714;SDS011;8977;50.902;4.314;2022-10-16T12:53:21;1.38;;;0.82;;
17714;SDS011;8977;50.902;4.314;2022-10-16T12:55:53;3.40;;;1.25;;
17714;SDS011;8977;50.902;4.314;2022-10-16T12:58:35;3.88;;;1.20;;
17714;SDS011;8977;50.902;4.314;2022-10-16T13:01:17;3.55;;;1.02;;
17714;SDS011;8977;50.902;4.314;2022-10-16T13:06:49;1.40;;;0.88;;
17714;SDS011;8977;50.902;4.314;2022-10-16T13:09:28;1.48;;;0.82;;
17714;SDS011;8977;50.902;4.314;2022-10-16T13:12:09;1.83;;;0.82;;
17714;SDS011;8977;50.902;4.314;2022-10-16T13:14:53;2.70;;;1.20;;
17714;SDS011;8977;50.902;4.314;2022-10-16T13:17:42;1.45;;;0.80;;
17714;SDS011;8977;50.902;4.314;2022-10-16T13:20:20;2.58;;;0.90;;
17714;SDS011;8977;50.902;4.314;2022-10-16T13:22:55;2.45;;;0.90;;
17714;SDS011;8977;50.902;4.314;2022-10-16T13:25:32;5.00;;;0.93;;
17714;SDS011;8977;50.902;4.314;2022-10-16T13:28:10;2.42;;;0.90;;
17714;SDS011;8977;50.902;4.314;2022-10-16T13:30:38;1.15;;;0.70;;
17714;SDS011;8977;50.902;4.314;2022-10-16T13:33:12;1.10;;;0.90;;
17714;SDS011;8977;50.902;4.314;2022-10-16T13:35:46;1.73;;;0.80;;
17714;SDS011;8977;50.902;4.314;2022-10-16T13:38:16;3.15;;;0.90;;
17714;SDS011;8977;50.902;4.314;2022-10-16T13:40:48;2.28;;;0.90;;
17714;SDS011;8977;50.902;4.314;2022-10-16T13:43:17;2.20;;;0.82;;
17714;SDS011;8977;50.902;4.314;2022-10-16T13:45:52;3.28;;;0.80;;
17714;SDS011;8977;50.902;4.314;2022-10-16T13:48:20;2.00;;;0.98;;
17714;SDS011;8977;50.902;4.314;2022-10-16T13:50:57;2.90;;;0.90;;
17714;SDS011;8977;50.902;4.314;2022-10-16T13:53:29;2.45;;;1.17;;
17714;SDS011;8977;50.902;4.314;2022-10-16T13:55:57;2.47;;;0.95;;
17714;SDS011;8977;50.902;4.314;2022-10-16T13:58:27;2.67;;;0.85;;
17714;SDS011;8977;50.902;4.314;2022-10-16T14:00:55;2.25;;;1.20;;
17714;SDS011;8977;50.902;4.314;2022-10-16T14:03:23;2.05;;;1.10;;
17714;SDS011;8977;50.902;4.314;2022-10-16T14:05:52;2.78;;;1.20;;
17714;SDS011;8977;50.902;4.314;2022-10-16T14:08:20;2.42;;;1.10;;
17714;SDS011;8977;50.902;4.314;2022-10-16T14:10:49;3.30;;;1.30;;
17714;SDS011;8977;50.902;4.314;2022-10-16T14:13:18;2.88;;;1.48;;
17714;SDS011;8977;50.902;4.314;2022-10-16T14:15:51;3.47;;;1.40;;
17714;SDS011;8977;50.902;4.314;2022-10-16T14:18:20;1.92;;;1.38;;
17714;SDS011;8977;50.902;4.314;2022-10-16T14:20:48;1.95;;;1.58;;
17714;SDS011;8977;50.902;4.314;2022-10-16T14:23:20;3.03;;;1.27;;
17714;SDS011;8977;50.902;4.314;2022-10-16T14:25:48;3.00;;;1.30;;
17714;SDS011;8977;50.902;4.314;2022-10-16T14:28:16;1.77;;;1.33;;
17714;SDS011;8977;50.902;4.314;2022-10-16T14:30:52;4.28;;;1.30;;
17714;SDS011;8977;50.902;4.314;2022-10-16T14:33:22;2.10;;;1.50;;
17714;SDS011;8977;50.902;4.314;2022-10-16T14:35:59;2.30;;;1.30;;
17714;SDS011;8977;50.902;4.314;2022-10-16T14:38:31;3.05;;;1.38;;
17714;SDS011;8977;50.902;4.314;2022-10-16T14:40:58;2.22;;;1.13;;
17714;SDS011;8977;50.902;4.314;2022-10-16T14:43:29;2.15;;;1.25;;
17714;SDS011;8977;50.902;4.314;2022-10-16T14:46:00;2.50;;;1.35;;
17714;SDS011;8977;50.902;4.314;2022-10-16T14:48:29;2.15;;;1.40;;
17714;SDS011;8977;50.902;4.314;2022-10-16T14:50:56;3.58;;;1.40;;
17714;SDS011;8977;50.902;4.314;2022-10-16T14:53:23;3.03;;;1.30;;
17714;SDS011;8977;50.902;4.314;2022-10-16T14:55:50;2.53;;;1.25;;
17714;SDS011;8977;50.902;4.314;2022-10-16T14:58:17;2.17;;;1.38;;
17714;SDS011;8977;50.902;4.314;2022-10-16T15:00:46;1.83;;;1.27;;
17714;SDS011;8977;50.902;4.314;2022-10-16T15:03:15;2.20;;;1.17;;
17714;SDS011;8977;50.902;4.314;2022-10-16T15:05:42;4.50;;;1.63;;
17714;SDS011;8977;50.902;4.314;2022-10-16T15:08:09;1.58;;;1.17;;
17714;SDS011;8977;50.902;4.314;2022-10-16T15:10:38;3.20;;;1.60;;
17714;SDS011;8977;50.902;4.314;2022-10-16T15:13:12;2.25;;;1.20;;
17714;SDS011;8977;50.902;4.314;2022-10-16T15:15:49;1.95;;;1.13;;
17714;SDS011;8977;50.902;4.314;2022-10-16T15:18:17;3.22;;;1.92;;
17714;SDS011;8977;50.902;4.314;2022-10-16T15:20:45;2.05;;;1.10;;
17714;SDS011;8977;50.902;4.314;2022-10-16T15:23:15;3.00;;;1.55;;
17714;SDS011;8977;50.902;4.314;2022-10-16T15:25:44;3.63;;;1.33;;
17714;SDS011;8977;50.902;4.314;2022-10-16T15:28:12;2.42;;;1.50;;
17714;SDS011;8977;50.902;4.314;2022-10-16T15:30:40;5.75;;;1.45;;